Terminal Aerodrome Forecast
Issued by NWS Wakefield, VA

Home | Current Version | Previous Version | Text Only | Print | Product List | Glossary On
Versions: 1 2 3 4 5 6 7 8 9 10 11 12 13 14 15 16 17 18 19 20 21 22 23 24 25 26 27
807
FTUS41 KAKQ 212207 AAB
TAFRIC
TAF AMD
KRIC 212207Z 2122/2218 13004KT 1SM BR OVC005
      TEMPO 2122/2202 OVC007
     FM220200 VRB03KT 3SM -SHRA OVC003
     FM220700 02003KT 1SM -DZ BR OVC003
     FM221500 00000KT 2SM BR BKN006=

USA.gov is the U.S. government's official web portal to all federal, state and local government web resources and services.